Time;durP1;ratioP1;P1;durP2;ratioP2;P2;SDS_P1;SDS_P2;PMS_P1;PMS_P2;Temp;Humidity;BMP_temperature;BMP_pressure;BME280_temperature;BME280_humidity;BME280_pressure;Samples;Min_cycle;Max_cycle;Signal;HPM_P1;HPM_P2
2023/05/14 00:02:27;;;;;;;27.45;25.25;;;7.30;99.90;;;;;;5229724;28;20105;-74
2023/05/14 00:04:58;;;;;;;26.65;24.65;;;7.20;99.90;;;;;;5229608;28;20775;-74
2023/05/14 00:07:29;;;;;;;26.77;24.95;;;6.90;99.90;;;;;;5229310;28;20033;-74
2023/05/14 00:10:00;;;;;;;30.13;27.83;;;6.90;99.90;;;;;;5229096;28;20021;-74
2023/05/14 00:12:31;;;;;;;31.55;29.27;;;7.00;99.90;;;;;;5229205;28;20485;-74
2023/05/14 00:15:02;;;;;;;30.08;27.83;;;7.10;99.90;;;;;;5229229;28;20036;-74
2023/05/14 00:17:33;;;;;;;30.35;27.95;;;7.00;99.90;;;;;;5229079;28;20071;-74
2023/05/14 00:20:06;;;;;;;28.08;26.08;;;7.20;99.90;;;;;;5229146;28;20033;-74
2023/05/14 00:22:38;;;;;;;29.00;26.95;;;7.20;99.90;;;;;;5734565;22;20028;-74
2023/05/14 00:25:09;;;;;;;29.42;27.25;;;7.20;99.90;;;;;;5188089;28;20490;-74
2023/05/14 00:27:40;;;;;;;29.00;26.85;;;7.10;99.90;;;;;;5188035;28;20042;-74
2023/05/14 00:30:11;;;;;;;29.55;27.45;;;6.60;99.90;;;;;;5187783;28;20080;-73
2023/05/14 00:32:42;;;;;;;27.55;25.40;;;7.00;99.90;;;;;;5187798;28;20034;-74
2023/05/14 00:35:13;;;;;;;30.10;27.85;;;6.70;99.90;;;;;;5187779;28;20026;-74
2023/05/14 00:37:47;;;;;;;27.83;25.90;;;6.50;99.90;;;;;;5187365;28;20565;-74
2023/05/14 00:40:34;;;;;;;;;;;;;;;;;;;;;
2023/05/14 00:43:09;;;;;;;33.63;31.13;;;7.00;99.90;;;;;;5187671;28;20018;-74
2023/05/14 00:45:40;;;;;;;32.97;30.15;;;7.00;99.90;;;;;;5187828;28;20382;-74
2023/05/14 00:48:13;;;;;;;33.92;31.50;;;6.70;99.90;;;;;;5187649;28;20026;-74
2023/05/14 00:50:44;;;;;;;33.13;30.70;;;6.60;99.90;;;;;;5187632;28;20037;-74
2023/05/14 00:53:16;;;;;;;31.33;29.13;;;6.50;99.90;;;;;;5186026;28;20033;-74
2023/05/14 00:55:48;;;;;;;32.00;29.48;;;6.70;99.90;;;;;;5187305;28;20038;-73
2023/05/14 00:58:20;;;;;;;31.45;29.35;;;6.30;99.90;;;;;;5187322;28;20030;-73
2023/05/14 01:00:51;;;;;;;33.35;30.92;;;6.50;99.90;;;;;;5187493;28;20026;-74
2023/05/14 01:03:22;;;;;;;34.83;32.22;;;6.70;99.90;;;;;;5185929;28;20645;-74
2023/05/14 01:06:16;;;;;;;31.02;28.83;;;6.90;99.90;;;;;;5187147;28;20029;-74
2023/05/14 01:09:09;;;;;;;32.47;30.17;;;6.50;99.90;;;;;;5187185;28;20030;-73
2023/05/14 01:11:52;;;;;;;33.53;31.23;;;6.10;99.90;;;;;;5185987;28;20489;-73
2023/05/14 01:14:54;;;;;;;33.88;31.48;;;6.10;99.90;;;;;;5185841;28;20027;-73
2023/05/14 01:17:29;;;;;;;35.88;33.17;;;6.60;99.90;;;;;;5186958;28;20033;-73
2023/05/14 01:20:00;;;;;;;33.60;31.27;;;6.30;99.90;;;;;;5187259;28;20029;-73
2023/05/14 01:22:31;;;;;;;35.58;33.08;;;6.50;99.90;;;;;;5186691;28;20053;-73
2023/05/14 01:25:03;;;;;;;34.33;31.85;;;6.40;99.90;;;;;;5186890;28;20508;-73
2023/05/14 01:27:43;;;;;;;35.53;33.05;;;6.40;99.90;;;;;;5185592;28;20132;-73
2023/05/14 01:30:36;;;;;;;33.15;30.85;;;6.50;99.90;;;;;;5185571;28;20452;-73
2023/05/14 01:33:12;;;;;;;34.55;31.75;;;6.60;99.90;;;;;;5186553;28;20113;-74
2023/05/14 01:35:44;;;;;;;33.95;31.45;;;6.40;99.90;;;;;;5186976;28;20080;-74
2023/05/14 01:38:17;;;;;;;33.72;31.38;;;6.40;99.90;;;;;;5186789;28;20034;-73
2023/05/14 01:40:49;;;;;;;34.33;31.75;;;6.40;99.90;;;;;;5185401;28;20072;-73
2023/05/14 01:43:21;;;;;;;33.65;31.25;;;6.20;99.90;;;;;;5186471;28;20030;-74
2023/05/14 01:45:54;;;;;;;31.85;29.38;;;6.10;99.90;;;;;;5185440;28;20029;-73
2023/05/14 01:48:28;;;;;;;32.65;30.33;;;6.00;99.90;;;;;;5186767;28;20017;-73
2023/05/14 01:50:59;;;;;;;32.88;30.60;;;5.80;99.90;;;;;;5185886;28;20010;-74
2023/05/14 01:53:33;;;;;;;31.67;29.38;;;5.90;99.90;;;;;;5184832;28;20026;-73
2023/05/14 01:56:04;;;;;;;31.70;29.45;;;6.10;99.90;;;;;;5185057;28;20034;-74
2023/05/14 01:58:34;;;;;;;30.98;28.52;;;5.90;99.90;;;;;;5186003;28;20073;-73
2023/05/14 02:01:05;;;;;;;34.25;31.88;;;5.70;99.90;;;;;;5186142;28;20065;-73
2023/05/14 02:03:36;;;;;;;27.98;25.92;;;5.60;99.90;;;;;;5186481;28;20025;-73
2023/05/14 02:06:07;;;;;;;27.33;25.30;;;5.70;99.90;;;;;;5184896;28;20536;-73
2023/05/14 02:08:38;;;;;;;28.60;26.60;;;6.00;99.90;;;;;;5184888;28;20029;-73
2023/05/14 02:11:08;;;;;;;32.50;30.13;;;5.90;99.90;;;;;;5185043;28;20030;-73
2023/05/14 02:13:39;;;;;;;29.60;27.42;;;6.00;99.90;;;;;;5185852;28;20026;-73
2023/05/14 02:16:10;;;;;;;28.48;26.27;;;5.70;99.90;;;;;;5186231;28;20053;-73
2023/05/14 02:18:41;;;;;;;29.73;27.58;;;5.70;99.90;;;;;;5186022;28;20437;-73
2023/05/14 02:21:12;;;;;;;29.95;27.85;;;6.00;99.90;;;;;;5186011;28;20458;-74
2023/05/14 02:23:43;;;;;;;30.92;28.70;;;5.90;99.90;;;;;;5185247;28;20049;-73
2023/05/14 02:26:14;;;;;;;28.92;26.88;;;5.90;99.90;;;;;;5184550;28;20041;-73
2023/05/14 02:28:44;;;;;;;30.48;28.25;;;5.90;99.90;;;;;;5185561;28;20030;-74
2023/05/14 02:31:18;;;;;;;28.63;26.58;;;5.70;99.90;;;;;;5186029;28;20062;-73
2023/05/14 02:33:48;;;;;;;28.02;26.13;;;5.70;99.90;;;;;;5185939;28;20038;-73
2023/05/14 02:36:19;;;;;;;29.20;26.95;;;5.70;99.90;;;;;;5185646;28;20462;-73
2023/05/14 02:38:50;;;;;;;30.42;28.13;;;5.60;99.90;;;;;;5187804;28;20041;-73
2023/05/14 02:41:21;;;;;;;31.58;29.45;;;5.70;99.90;;;;;;5205969;28;20490;-73
2023/05/14 02:43:52;;;;;;;30.25;28.27;;;5.90;99.90;;;;;;5188532;28;20481;-73
2023/05/14 02:46:23;;;;;;;29.30;27.10;;;5.70;99.90;;;;;;5205672;28;20058;-73
2023/05/14 02:48:54;;;;;;;27.17;25.35;;;5.70;99.90;;;;;;5206204;28;20052;-73
2023/05/14 02:51:25;;;;;;;31.20;28.95;;;5.70;99.90;;;;;;5187973;28;20030;-74
2023/05/14 02:53:59;;;;;;;29.95;27.95;;;5.70;99.90;;;;;;5187839;28;20025;-73
2023/05/14 02:56:30;;;;;;;26.60;24.73;;;5.50;99.90;;;;;;5205500;28;20124;-73
2023/05/14 02:59:01;;;;;;;27.08;25.13;;;5.50;99.90;;;;;;5206050;28;20116;-73
2023/05/14 03:01:32;;;;;;;26.42;24.60;;;5.60;99.90;;;;;;5206453;28;20032;-73
2023/05/14 03:04:03;;;;;;;26.20;24.40;;;5.80;99.90;;;;;;5209749;28;20025;-73
2023/05/14 03:06:33;;;;;;;28.02;25.92;;;5.50;99.90;;;;;;5210010;28;20492;-73
2023/05/14 03:09:04;;;;;;;29.40;27.27;;;5.50;99.90;;;;;;5209790;28;20473;-73
2023/05/14 03:11:35;;;;;;;26.27;24.33;;;5.80;99.90;;;;;;5209784;28;20076;-73
2023/05/14 03:14:06;;;;;;;29.83;27.73;;;5.70;99.90;;;;;;5209703;28;20017;-73
2023/05/14 03:16:38;;;;;;;28.25;26.27;;;6.00;99.90;;;;;;5209392;28;20025;-73
2023/05/14 03:19:09;;;;;;;27.73;25.67;;;5.80;99.90;;;;;;5209543;28;20044;-73
2023/05/14 03:21:40;;;;;;;27.85;26.02;;;5.90;99.90;;;;;;5209341;28;20017;-73
2023/05/14 03:24:11;;;;;;;27.95;25.95;;;5.90;99.90;;;;;;5209113;28;20393;-73
2023/05/14 03:26:42;;;;;;;25.67;23.88;;;6.00;99.90;;;;;;5200289;28;20026;-73
2023/05/14 03:29:16;;;;;;;26.38;24.48;;;6.10;99.90;;;;;;5188986;28;20030;-73
2023/05/14 03:31:48;;;;;;;26.85;24.90;;;5.90;99.90;;;;;;5188848;28;20018;-73
2023/05/14 03:34:19;;;;;;;26.52;24.63;;;6.10;99.90;;;;;;5171226;28;20101;-73
2023/05/14 03:36:50;;;;;;;26.75;24.85;;;6.30;99.90;;;;;;5188873;28;20157;-73
2023/05/14 03:39:21;;;;;;;26.33;24.42;;;6.00;99.90;;;;;;5188413;28;20045;-73
2023/05/14 03:41:52;;;;;;;26.73;24.75;;;6.10;99.90;;;;;;5188561;28;20045;-73
2023/05/14 03:44:22;;;;;;;25.33;23.50;;;6.10;99.90;;;;;;5188607;28;20026;-73
2023/05/14 03:46:53;;;;;;;25.92;23.98;;;6.20;99.90;;;;;;5188586;28;20026;-73
2023/05/14 03:49:24;;;;;;;27.98;26.08;;;6.30;99.90;;;;;;5188274;28;20458;-73
2023/05/14 03:51:57;;;;;;;27.10;25.20;;;6.20;99.90;;;;;;5187987;28;20070;-73
2023/05/14 03:54:27;;;;;;;26.17;23.90;;;6.30;99.90;;;;;;5188357;28;20117;-73
2023/05/14 03:56:58;;;;;;;27.92;25.92;;;6.20;99.90;;;;;;5188244;28;20034;-73
2023/05/14 03:59:29;;;;;;;25.73;24.00;;;6.10;99.90;;;;;;5188397;28;20120;-73
2023/05/14 04:02:00;;;;;;;25.33;23.52;;;6.30;99.90;;;;;;5170632;28;20075;-73
2023/05/14 04:04:31;;;;;;;25.73;23.73;;;6.30;99.90;;;;;;5188128;28;20101;-73
2023/05/14 04:07:02;;;;;;;26.55;24.65;;;6.00;99.90;;;;;;5187784;28;20022;-73
2023/05/14 04:09:33;;;;;;;26.35;24.50;;;6.70;99.90;;;;;;5170514;28;20026;-73
2023/05/14 04:12:04;;;;;;;27.35;25.35;;;6.50;99.90;;;;;;5187716;28;20060;-73
2023/05/14 04:14:35;;;;;;;25.00;23.15;;;6.50;99.90;;;;;;5170599;28;20033;-73
2023/05/14 04:17:06;;;;;;;26.30;24.00;;;6.80;99.90;;;;;;5188059;28;20030;-73
2023/05/14 04:19:38;;;;;;;26.45;24.67;;;6.70;99.90;;;;;;5187848;28;20037;-73
2023/05/14 04:22:09;;;;;;;25.95;24.02;;;6.90;99.90;;;;;;5187632;28;20025;-74
2023/05/14 04:24:39;;;;;;;25.88;23.88;;;6.90;99.90;;;;;;5187773;28;20497;-73
2023/05/14 04:27:10;;;;;;;26.15;24.08;;;7.10;99.90;;;;;;5187765;28;20026;-73
2023/05/14 04:29:41;;;;;;;24.10;22.20;;;7.10;99.90;;;;;;5170341;28;20021;-73
2023/05/14 04:32:12;;;;;;;25.52;23.63;;;7.20;99.90;;;;;;5187743;28;20501;-73
2023/05/14 04:34:43;;;;;;;24.27;22.40;;;7.10;99.90;;;;;;5187805;28;20037;-73
2023/05/14 04:37:13;;;;;;;24.60;22.77;;;7.60;99.90;;;;;;5187701;28;20504;-73
2023/05/14 04:39:45;;;;;;;25.52;23.73;;;7.50;99.90;;;;;;5170111;28;20489;-74
2023/05/14 04:42:16;;;;;;;24.25;22.45;;;7.70;99.90;;;;;;5187629;28;20028;-73
2023/05/14 04:44:46;;;;;;;25.00;23.17;;;8.00;99.90;;;;;;5170049;28;20025;-73
2023/05/14 04:47:17;;;;;;;24.63;22.92;;;8.00;99.90;;;;;;5187160;28;20025;-73
2023/05/14 04:49:48;;;;;;;26.52;24.50;;;8.00;99.90;;;;;;5187581;28;20022;-73
2023/05/14 04:52:19;;;;;;;26.13;24.17;;;8.00;99.90;;;;;;5187266;28;20103;-73
2023/05/14 04:54:50;;;;;;;25.35;23.48;;;8.20;99.90;;;;;;5187111;28;20130;-73
2023/05/14 04:57:20;;;;;;;24.80;22.90;;;8.40;99.90;;;;;;5186982;28;20108;-73
2023/05/14 04:59:51;;;;;;;23.83;22.08;;;8.70;99.90;;;;;;5169802;28;20044;-73
2023/05/14 05:02:22;;;;;;;26.63;24.52;;;8.60;99.90;;;;;;5187074;28;20020;-73
2023/05/14 05:04:53;;;;;;;25.92;23.92;;;8.50;99.90;;;;;;5169202;28;20803;-73
2023/05/14 05:07:24;;;;;;;24.35;22.63;;;8.50;99.90;;;;;;5186930;28;20014;-73
2023/05/14 05:09:55;;;;;;;25.33;23.52;;;9.00;99.90;;;;;;5169001;28;20029;-73
2023/05/14 05:12:28;;;;;;;25.90;23.83;;;9.20;99.90;;;;;;5186050;28;20520;-73
2023/05/14 05:14:59;;;;;;;28.05;25.85;;;9.50;99.90;;;;;;5186388;28;20408;-74
2023/05/14 05:17:30;;;;;;;27.60;25.25;;;9.60;99.90;;;;;;5185559;28;20041;-74
2023/05/14 05:20:02;;;;;;;24.40;22.63;;;9.70;99.90;;;;;;5185876;28;20140;-74
2023/05/14 05:22:33;;;;;;;24.35;22.52;;;10.00;99.90;;;;;;5186528;28;20126;-76
2023/05/14 05:25:05;;;;;;;25.42;23.42;;;10.40;99.90;;;;;;5185846;28;20608;-74
2023/05/14 05:27:36;;;;;;;24.33;22.50;;;10.60;99.90;;;;;;5168727;28;20034;-74
2023/05/14 05:30:08;;;;;;;27.15;25.05;;;10.70;99.90;;;;;;5179958;28;20058;-74
2023/05/14 05:32:39;;;;;;;32.00;29.63;;;11.00;99.90;;;;;;5179482;28;20022;-74
2023/05/14 05:35:10;;;;;;;31.45;29.10;;;11.30;99.90;;;;;;5186002;28;20018;-74
2023/05/14 05:37:41;;;;;;;37.53;34.65;;;11.90;99.90;;;;;;5186610;28;20036;-75
2023/05/14 05:40:13;;;;;;;42.85;39.35;;;12.00;99.90;;;;;;5186862;28;20567;-75
2023/05/14 05:42:44;;;;;;;41.05;38.03;;;12.50;99.90;;;;;;5186645;28;20022;-75
2023/05/14 05:45:14;;;;;;;43.90;40.63;;;12.70;99.90;;;;;;5186652;28;20084;-74
2023/05/14 05:47:45;;;;;;;44.58;41.47;;;13.00;99.90;;;;;;5186235;28;20080;-74
2023/05/14 05:50:16;;;;;;;40.03;37.28;;;13.10;99.90;;;;;;5169312;28;20025;-74
2023/05/14 05:52:47;;;;;;;41.78;38.80;;;13.30;99.90;;;;;;5168566;28;20030;-75
2023/05/14 05:55:18;;;;;;;41.33;38.60;;;13.30;99.90;;;;;;5169157;28;20034;-75
2023/05/14 05:57:49;;;;;;;38.35;35.75;;;13.50;99.90;;;;;;5186647;28;20029;-75
2023/05/14 06:00:20;;;;;;;37.35;34.65;;;13.70;99.90;;;;;;5186581;28;20386;-75
2023/05/14 06:02:51;;;;;;;33.25;30.80;;;13.70;99.90;;;;;;5168996;28;20359;-74
2023/05/14 06:05:22;;;;;;;34.88;32.13;;;13.90;99.90;;;;;;5186838;28;20026;-75
2023/05/14 06:07:53;;;;;;;33.67;31.20;;;14.00;99.90;;;;;;5186401;28;20026;-75
2023/05/14 06:10:24;;;;;;;35.60;32.42;;;14.00;99.90;;;;;;5186031;28;20029;-75
2023/05/14 06:12:55;;;;;;;31.45;28.92;;;14.10;99.90;;;;;;5185845;28;20079;-75
2023/05/14 06:15:25;;;;;;;29.38;26.42;;;14.20;99.90;;;;;;5186049;28;20113;-75
2023/05/14 06:17:56;;;;;;;30.77;28.23;;;14.00;99.90;;;;;;5177460;28;20409;-74
2023/05/14 06:20:27;;;;;;;29.48;27.45;;;14.30;99.90;;;;;;5185846;28;20447;-74
2023/05/14 06:22:58;;;;;;;27.33;25.38;;;14.50;99.90;;;;;;5185323;28;20052;-74
2023/05/14 06:25:29;;;;;;;28.52;26.17;;;14.80;99.90;;;;;;5185840;28;20049;-74
2023/05/14 06:28:00;;;;;;;26.58;24.58;;;14.90;99.90;;;;;;5167655;28;20030;-75
2023/05/14 06:30:31;;;;;;;28.38;26.25;;;14.90;99.90;;;;;;5176066;28;20153;-75
2023/05/14 06:33:01;;;;;;;25.42;23.73;;;15.00;99.90;;;;;;5184031;28;20509;-71
2023/05/14 06:35:33;;;;;;;26.20;24.30;;;15.10;99.90;;;;;;5186202;28;20470;-74
2023/05/14 06:38:04;;;;;;;25.70;23.85;;;15.20;99.90;;;;;;5189674;28;20064;-74
2023/05/14 06:40:35;;;;;;;28.33;26.25;;;15.00;99.90;;;;;;5189618;28;20474;-74
2023/05/14 06:43:06;;;;;;;26.63;24.88;;;15.30;99.90;;;;;;5189120;28;20041;-73
2023/05/14 06:45:37;;;;;;;27.58;25.70;;;15.40;99.90;;;;;;5189223;28;20029;-74
2023/05/14 06:48:08;;;;;;;26.52;24.63;;;15.50;99.90;;;;;;5172012;28;20080;-74
2023/05/14 06:50:39;;;;;;;23.63;22.02;;;15.50;99.90;;;;;;5189389;28;20014;-74
2023/05/14 06:53:10;;;;;;;23.25;21.40;;;15.30;99.90;;;;;;5189420;28;20049;-74
2023/05/14 06:55:41;;;;;;;20.30;18.90;;;15.40;99.90;;;;;;5189623;28;20532;-74
2023/05/14 06:58:12;;;;;;;20.95;19.35;;;15.70;99.90;;;;;;5188926;28;20045;-74
2023/05/14 07:00:43;;;;;;;18.77;17.20;;;15.70;99.90;;;;;;5188991;28;20177;-74
2023/05/14 07:03:14;;;;;;;18.42;17.00;;;16.10;99.90;;;;;;5188473;28;20030;-74
2023/05/14 07:05:45;;;;;;;17.25;15.80;;;16.20;99.90;;;;;;5188618;28;20096;-74
2023/05/14 07:08:16;;;;;;;17.88;16.65;;;16.30;99.90;;;;;;5189071;28;20034;-74
2023/05/14 07:10:47;;;;;;;19.60;17.98;;;16.30;99.90;;;;;;5171627;28;20022;-74
2023/05/14 07:13:18;;;;;;;18.40;17.10;;;16.40;99.90;;;;;;5189186;28;20026;-74
2023/05/14 07:15:50;;;;;;;19.85;18.42;;;16.20;99.90;;;;;;5189150;28;20224;-75
2023/05/14 07:18:23;;;;;;;21.08;19.42;;;16.10;99.90;;;;;;5189261;28;20045;-74
2023/05/14 07:20:54;;;;;;;23.55;22.05;;;16.10;99.90;;;;;;5171624;28;20022;-74
2023/05/14 07:23:25;;;;;;;21.45;20.00;;;16.00;99.90;;;;;;5188579;28;20049;-74
2023/05/14 07:25:56;;;;;;;23.58;21.58;;;16.30;99.90;;;;;;5188905;28;20034;-74
2023/05/14 07:28:27;;;;;;;22.27;20.75;;;16.50;99.90;;;;;;5171515;28;20109;-74
2023/05/14 07:30:58;;;;;;;22.00;20.48;;;16.70;99.90;;;;;;5188821;28;20037;-74
2023/05/14 07:33:29;;;;;;;20.38;18.67;;;16.80;99.90;;;;;;5188658;28;20576;-74
2023/05/14 07:36:00;;;;;;;21.30;19.80;;;16.90;99.90;;;;;;5188299;28;20033;-74
2023/05/14 07:38:31;;;;;;;22.17;20.58;;;16.50;99.90;;;;;;5188795;28;20052;-74
2023/05/14 07:41:02;;;;;;;21.15;19.67;;;16.70;99.90;;;;;;5188773;28;20029;-74
2023/05/14 07:43:33;;;;;;;24.20;22.00;;;16.80;99.90;;;;;;5188620;28;20029;-74
2023/05/14 07:46:04;;;;;;;21.92;20.33;;;17.10;99.90;;;;;;5188718;28;20026;-75
2023/05/14 07:48:35;;;;;;;21.42;19.90;;;17.10;99.90;;;;;;5187649;28;20042;-74
2023/05/14 07:51:05;;;;;;;23.25;21.50;;;17.10;99.90;;;;;;5187028;28;20127;-74
2023/05/14 07:53:36;;;;;;;28.13;26.40;;;17.10;99.90;;;;;;5188319;28;20057;-74
2023/05/14 07:56:07;;;;;;;25.02;23.42;;;17.00;99.90;;;;;;5170090;28;20033;-74
2023/05/14 07:58:38;;;;;;;26.27;24.38;;;17.20;99.90;;;;;;5188063;28;20793;-74
2023/05/14 08:01:09;;;;;;;23.70;22.10;;;17.30;99.90;;;;;;5188170;28;20093;-74
2023/05/14 08:03:40;;;;;;;25.33;23.42;;;17.30;99.90;;;;;;5188143;28;20034;-74
2023/05/14 08:06:11;;;;;;;20.65;18.65;;;17.30;99.90;;;;;;5188011;28;20026;-74
2023/05/14 08:08:42;;;;;;;19.17;17.73;;;17.20;99.90;;;;;;5188154;28;20053;-74
2023/05/14 08:11:13;;;;;;;17.95;16.65;;;17.30;99.90;;;;;;5188400;28;20119;-74
2023/05/14 08:13:44;;;;;;;15.40;14.10;;;17.30;99.90;;;;;;5187652;28;20434;-74
2023/05/14 08:16:15;;;;;;;16.83;15.73;;;17.50;99.90;;;;;;5188017;28;20029;-74
2023/05/14 08:18:45;;;;;;;16.77;15.57;;;17.60;99.90;;;;;;5187907;28;20460;-74
2023/05/14 08:21:16;;;;;;;17.13;15.93;;;17.60;99.90;;;;;;5187937;28;20406;-74
2023/05/14 08:23:47;;;;;;;18.42;17.00;;;17.90;99.90;;;;;;5187399;28;20108;-74
2023/05/14 08:26:18;;;;;;;16.40;15.32;;;17.80;99.90;;;;;;5187374;28;20034;-74
2023/05/14 08:28:49;;;;;;;17.35;15.95;;;17.70;99.90;;;;;;5187930;28;20685;-74
2023/05/14 08:31:20;;;;;;;16.08;14.55;;;17.30;99.90;;;;;;5187830;28;20040;-74
2023/05/14 08:33:51;;;;;;;16.42;15.20;;;17.70;99.90;;;;;;5170133;28;20371;-74
2023/05/14 08:36:22;;;;;;;15.93;14.82;;;17.60;99.90;;;;;;5187250;28;20032;-74
2023/05/14 08:38:53;;;;;;;15.93;14.63;;;17.60;99.90;;;;;;5187811;28;20038;-74
2023/05/14 08:41:24;;;;;;;15.25;14.05;;;17.60;99.90;;;;;;5187625;28;20025;-75
2023/05/14 08:44:09;;;;;;;15.27;13.82;;;17.60;99.90;;;;;;5169798;28;20029;-74
2023/05/14 08:46:40;;;;;;;16.45;14.93;;;17.60;99.90;;;;;;5187469;28;20105;-74
2023/05/14 08:49:39;;;;;;;16.80;15.50;;;17.50;99.90;;;;;;5187571;28;20365;-74
2023/05/14 08:52:11;;;;;;;16.63;15.52;;;17.60;99.90;;;;;;5169484;28;20084;-75
2023/05/14 08:54:44;;;;;;;18.08;16.77;;;17.30;99.90;;;;;;5187104;28;20034;-74
2023/05/14 08:57:17;;;;;;;18.13;16.98;;;17.60;99.90;;;;;;5179900;28;20044;-75
2023/05/14 08:59:48;;;;;;;19.13;17.73;;;17.60;99.90;;;;;;5187086;28;20033;-74
2023/05/14 09:02:23;;;;;;;21.88;19.98;;;17.60;99.90;;;;;;5185615;28;20033;-75
2023/05/14 09:04:56;;;;;;;19.65;18.38;;;17.90;99.90;;;;;;5187146;28;20017;-74
2023/05/14 09:07:27;;;;;;;21.17;19.55;;;18.00;99.90;;;;;;5187124;28;20026;-75
2023/05/14 09:10:00;;;;;;;19.60;17.98;;;18.20;99.90;;;;;;5186878;28;20470;-74
2023/05/14 09:12:30;;;;;;;20.10;18.67;;;18.00;99.90;;;;;;5186955;28;20025;-75
2023/05/14 09:15:02;;;;;;;19.05;17.65;;;18.40;99.90;;;;;;5186861;28;20446;-75
2023/05/14 09:17:33;;;;;;;18.42;17.27;;;18.60;99.90;;;;;;5186632;28;20518;-74
2023/05/14 09:20:05;;;;;;;18.75;17.42;;;18.50;99.90;;;;;;5186073;28;20386;-75
2023/05/14 09:22:38;;;;;;;17.73;16.42;;;18.40;99.90;;;;;;5166208;28;20026;-75
2023/05/14 09:25:11;;;;;;;18.35;17.25;;;19.00;99.90;;;;;;5182436;28;20085;-74
2023/05/14 09:27:45;;;;;;;19.90;18.80;;;19.30;99.90;;;;;;5186614;28;20022;-75
2023/05/14 09:30:16;;;;;;;20.55;18.58;;;19.00;99.90;;;;;;5168743;28;20478;-74
2023/05/14 09:32:49;;;;;;;20.00;18.50;;;19.00;99.90;;;;;;5186260;28;20524;-74
2023/05/14 09:35:24;;;;;;;20.73;19.42;;;18.60;99.90;;;;;;5186339;28;20022;-74
2023/05/14 09:37:55;;;;;;;21.38;19.88;;;19.60;99.90;;;;;;5186468;28;20034;-75
2023/05/14 09:40:26;;;;;;;21.88;20.50;;;19.30;99.90;;;;;;5186346;28;20033;-74
2023/05/14 09:42:57;;;;;;;19.90;18.33;;;19.10;99.90;;;;;;5186413;28;20478;-75
2023/05/14 09:45:28;;;;;;;19.27;17.73;;;19.50;99.90;;;;;;5168739;28;20474;-75
2023/05/14 09:48:00;;;;;;;18.10;16.90;;;19.70;99.90;;;;;;5186194;28;20485;-75
2023/05/14 09:50:31;;;;;;;20.85;19.27;;;19.80;99.90;;;;;;5186150;28;20021;-75
2023/05/14 09:53:02;;;;;;;23.63;22.02;;;19.60;99.90;;;;;;5168496;28;20036;-75
2023/05/14 09:55:34;;;;;;;21.00;19.20;;;19.60;99.90;;;;;;5185727;28;20026;-75
2023/05/14 09:58:05;;;;;;;20.17;18.85;;;19.60;99.90;;;;;;5165657;28;20040;-75
2023/05/14 10:00:37;;;;;;;22.58;20.77;;;18.60;99.90;;;;;;5168117;28;20112;-75
2023/05/14 10:03:11;;;;;;;22.08;20.52;;;18.70;99.90;;;;;;5168486;28;20058;-75
2023/05/14 10:05:43;;;;;;;20.60;18.92;;;19.00;99.90;;;;;;5174486;28;20419;-74
2023/05/14 10:08:25;;;;;;;21.85;20.38;;;18.80;99.90;;;;;;5178187;28;20017;-75
2023/05/14 10:10:58;;;;;;;22.95;21.35;;;19.30;99.90;;;;;;5175306;28;20475;-75
2023/05/14 10:13:40;;;;;;;22.67;21.13;;;19.60;99.90;;;;;;5179930;28;20030;-74
2023/05/14 10:16:27;;;;;;;23.73;22.23;;;19.60;99.90;;;;;;5160493;28;20018;-74
2023/05/14 10:19:09;;;;;;;25.38;23.20;;;18.90;99.90;;;;;;5181534;28;20390;-75
2023/05/14 10:21:42;;;;;;;20.20;18.75;;;19.90;99.90;;;;;;5185757;28;20065;-75
2023/05/14 10:24:13;;;;;;;20.98;19.60;;;19.90;99.90;;;;;;5184962;28;20061;-75
2023/05/14 10:26:44;;;;;;;22.55;20.85;;;19.80;99.90;;;;;;5184792;28;20034;-75
2023/05/14 10:29:15;;;;;;;22.98;21.10;;;20.00;99.90;;;;;;5185393;28;20026;-75
2023/05/14 10:31:46;;;;;;;21.90;20.27;;;20.00;99.90;;;;;;5185510;28;20359;-75
2023/05/14 10:34:45;;;;;;;25.13;23.05;;;20.10;99.90;;;;;;5185446;28;20041;-75
2023/05/14 10:37:25;;;;;;;21.63;19.88;;;20.30;99.90;;;;;;5185410;28;20393;-75
2023/05/14 10:39:56;;;;;;;21.83;19.95;;;20.50;99.90;;;;;;5168000;28;20124;-75
2023/05/14 10:42:42;;;;;;;18.98;17.73;;;20.40;99.90;;;;;;5185686;28;20109;-74
2023/05/14 10:45:14;;;;;;;22.83;21.23;;;20.40;99.90;;;;;;5185716;28;20026;-75
2023/05/14 10:47:46;;;;;;;21.67;20.27;;;20.30;99.90;;;;;;5168158;28;20456;-75
2023/05/14 10:50:18;;;;;;;22.92;20.67;;;20.20;99.90;;;;;;5185499;28;20061;-75
2023/05/14 10:52:50;;;;;;;22.95;21.45;;;20.60;99.90;;;;;;5184113;28;20033;-75
2023/05/14 10:55:21;;;;;;;23.35;21.70;;;20.90;99.90;;;;;;5184344;28;20026;-75
2023/05/14 10:57:52;;;;;;;23.10;21.60;;;20.80;99.90;;;;;;5185004;28;20095;-75
2023/05/14 11:00:26;;;;;;;22.67;21.17;;;20.80;99.90;;;;;;5185279;28;20490;-75
2023/05/14 11:02:57;;;;;;;22.38;20.88;;;20.90;99.90;;;;;;5185244;28;20022;-76
2023/05/14 11:05:28;;;;;;;21.40;19.67;;;20.80;99.90;;;;;;5183975;28;20033;-75
2023/05/14 11:08:04;;;;;;;23.20;21.55;;;20.80;99.90;;;;;;5185391;28;20501;-75
2023/05/14 11:10:37;;;;;;;23.40;21.90;;;20.60;99.90;;;;;;5185512;28;20056;-75
2023/05/14 11:13:10;;;;;;;22.63;21.02;;;20.30;99.90;;;;;;5185230;28;20018;-75
2023/05/14 11:15:46;;;;;;;20.08;18.77;;;20.00;99.90;;;;;;5183865;28;20060;-75
2023/05/14 11:18:32;;;;;;;18.50;17.30;;;19.70;99.90;;;;;;5167647;28;20549;-75
2023/05/14 11:21:03;;;;;;;24.83;21.98;;;19.70;99.90;;;;;;5185506;28;20030;-75
2023/05/14 11:23:34;;;;;;;19.85;18.05;;;19.70;99.90;;;;;;5187014;28;20053;-75
2023/05/14 11:26:05;;;;;;;48.22;25.25;;;19.60;99.90;;;;;;5171305;28;20091;-76
2023/05/14 11:28:37;;;;;;;20.17;18.45;;;19.50;99.90;;;;;;5189267;28;20049;-75
2023/05/14 11:31:09;;;;;;;16.70;15.68;;;19.30;99.90;;;;;;5189063;28;20053;-75
2023/05/14 11:33:40;;;;;;;19.45;18.15;;;19.20;99.90;;;;;;5188602;28;20044;-75
2023/05/14 11:36:11;;;;;;;17.45;16.00;;;18.80;99.90;;;;;;5188599;28;20022;-75
2023/05/14 11:38:51;;;;;;;16.80;15.38;;;18.60;99.90;;;;;;5188836;28;20056;-75
2023/05/14 11:41:21;;;;;;;18.05;16.58;;;18.40;99.90;;;;;;5171186;28;20022;-75
2023/05/14 11:43:52;;;;;;;18.35;16.98;;;18.40;99.90;;;;;;5188539;28;20042;-75
2023/05/14 11:46:24;;;;;;;19.13;17.83;;;18.00;99.90;;;;;;5188696;28;20037;-75
2023/05/14 11:48:55;;;;;;;19.67;18.48;;;18.00;99.90;;;;;;5170967;28;20102;-75
2023/05/14 11:51:26;;;;;;;18.05;16.85;;;17.90;99.90;;;;;;5188852;28;20022;-75
2023/05/14 11:53:58;;;;;;;19.90;18.60;;;17.80;99.90;;;;;;5171129;28;20497;-75
2023/05/14 11:56:28;;;;;;;19.70;18.50;;;17.90;99.90;;;;;;5188439;28;20062;-75
2023/05/14 11:58:59;;;;;;;22.27;20.88;;;17.80;99.90;;;;;;5188518;28;20084;-75
2023/05/14 12:01:38;;;;;;;19.85;18.58;;;17.80;99.90;;;;;;5188329;28;20026;-75
2023/05/14 12:04:09;;;;;;;20.38;19.17;;;17.50;99.90;;;;;;5188384;28;20804;-75
2023/05/14 12:06:40;;;;;;;23.45;21.85;;;17.80;99.90;;;;;;5188372;28;20026;-75
2023/05/14 12:09:11;;;;;;;23.77;22.23;;;18.00;99.90;;;;;;5170745;28;20033;-75
2023/05/14 12:11:46;;;;;;;25.35;23.92;;;18.20;99.90;;;;;;5188446;28;20018;-75
2023/05/14 12:14:19;;;;;;;26.33;24.42;;;18.20;99.90;;;;;;5188428;28;20378;-75
2023/05/14 12:16:50;;;;;;;24.50;22.90;;;18.20;99.90;;;;;;5188113;28;20537;-75
2023/05/14 12:19:22;;;;;;;24.92;23.27;;;18.20;99.90;;;;;;5187752;28;20052;-75
2023/05/14 12:21:53;;;;;;;23.38;21.85;;;18.30;99.90;;;;;;5170209;28;20021;-75
2023/05/14 12:24:24;;;;;;;21.88;20.40;;;18.20;99.90;;;;;;5187649;28;20516;-75
2023/05/14 12:26:56;;;;;;;22.48;20.88;;;18.30;99.90;;;;;;5187758;28;20424;-75
2023/05/14 12:29:27;;;;;;;26.40;24.30;;;18.20;99.90;;;;;;5170361;28;20029;-75
2023/05/14 12:31:58;;;;;;;25.15;23.35;;;18.10;99.90;;;;;;5188111;28;20014;-75
2023/05/14 12:34:29;;;;;;;24.23;22.52;;;18.20;99.90;;;;;;5187563;28;20049;-75
2023/05/14 12:37:00;;;;;;;25.20;23.48;;;18.10;99.90;;;;;;5170147;28;20025;-75
2023/05/14 12:39:33;;;;;;;24.15;22.48;;;18.30;99.90;;;;;;5187175;28;20034;-75
2023/05/14 12:42:04;;;;;;;23.30;21.65;;;18.10;99.90;;;;;;5186357;28;20022;-75
2023/05/14 12:44:35;;;;;;;25.02;23.52;;;18.10;99.90;;;;;;5186763;28;20037;-75
2023/05/14 12:47:06;;;;;;;23.15;21.45;;;18.10;99.90;;;;;;5186912;28;20026;-75
2023/05/14 12:49:37;;;;;;;24.48;22.67;;;18.10;99.90;;;;;;5169155;28;20075;-75
2023/05/14 12:52:08;;;;;;;23.33;21.63;;;17.80;99.90;;;;;;5169607;28;20028;-75
2023/05/14 12:54:40;;;;;;;25.65;23.42;;;17.90;99.90;;;;;;5187323;28;20037;-75
2023/05/14 12:57:11;;;;;;;29.98;27.35;;;18.00;99.90;;;;;;5187305;28;20354;-75
2023/05/14 12:59:41;;;;;;;30.52;28.20;;;17.90;99.90;;;;;;5187345;28;20042;-75